Etusivu
METAR-TAF:

METAR-TAF

Lentoasemat :

Crystal Airport

Minneapolis / Crystal, Minnesota, Yhdysvallat

Leveyspiiri: 45-03-45N, Pituuspiiri: 093-21-03W, korkeus merenpinnasta: 264 m

Tämänhetkinen sää

Tämä raportti tehtiin 25 minuuttia sitten, kello 08.53 UTC
Tuuli 6 kn lännestä/luoteesta
Lämpötila -8°C
Kosteus 79%
Ilmanpaine 1018 hPa
Näkyvyys: 16.1 km
Hajonneita pilviä 5000 ft:n korkeudessa

METAR: KMIC 180853Z 30006KT 10SM BKN050 M08/M11 A3007 RMK AO2 SLP195 T10781111 51022

Aika: 03:18 (09:18 UTC)


TAF: puuttuu

Säähavainnot ja -ennusteet yli 4000 lentoasemalta (METAR- ja TAF-raportit).

Käytössä olevat sääasemat on merkitty karttaan keltaisilla ja punaisilla pisteillä.

Aseta hiiri pisteen päälle nähdäksesi sääaseman nimen.

Klikkaa sitten nähdäksesi säähavainnot ja -ennusteet.

Kartan vaihtaminen: klikkaa mustalla rastilla varustettuja vihreitä pisteitä, niin voit zoomata sisään; viivalla varustettua vihreää pistettä, niin voit zoomata ulos tai vihreitä nuolia, niin pääset viereisille kartoille.


METAR-TAF: